sensor_id;sensor_type;location;lat;lon;timestamp;pressure;altitude;pressure_sealevel;temperature;humidity
69316;BME280;56445;43.552;5.034;2023-08-24T19:45:13;101369.53;;;45.76;22.63
69316;BME280;56445;43.552;5.034;2023-08-24T19:53:09;101345.63;;;45.50;22.67
69316;BME280;56445;43.552;5.034;2023-08-24T20:33:17;101366.59;;;45.40;23.36
69316;BME280;56445;43.552;5.034;2023-08-24T20:35:44;101385.06;;;45.51;23.63
69316;BME280;56445;43.552;5.034;2023-08-24T20:38:11;101384.28;;;45.51;23.23
69316;BME280;56445;43.552;5.034;2023-08-24T20:40:38;101357.38;;;45.32;23.16
69316;BME280;56445;43.552;5.034;2023-08-24T20:43:05;101359.50;;;45.28;23.18
69316;BME280;56445;43.552;5.034;2023-08-24T20:45:33;101388.09;;;45.44;23.27
69316;BME280;56445;43.552;5.034;2023-08-24T20:50:55;101385.50;;;45.30;23.28
69316;BME280;56445;43.552;5.034;2023-08-24T20:53:25;101381.78;;;45.33;23.32
69316;BME280;56445;43.552;5.034;2023-08-24T20:55:53;101362.59;;;45.13;23.48
69316;BME280;56445;43.552;5.034;2023-08-24T20:58:20;101391.22;;;45.26;23.50
69316;BME280;56445;43.552;5.034;2023-08-24T21:00:47;101380.72;;;45.23;23.41
69316;BME280;56445;43.552;5.034;2023-08-24T21:03:15;101366.28;;;45.10;23.43
69316;BME280;56445;43.552;5.034;2023-08-24T21:05:56;101368.41;;;45.06;23.41
69316;BME280;56445;43.552;5.034;2023-08-24T21:08:27;101383.75;;;45.12;23.41
69316;BME280;56445;43.552;5.034;2023-08-24T21:10:58;101383.38;;;45.10;23.61
69316;BME280;56445;43.552;5.034;2023-08-24T21:13:25;101379.78;;;45.06;23.54
69316;BME280;56445;43.552;5.034;2023-08-24T21:15:57;101378.69;;;45.00;23.63
69316;BME280;56445;43.552;5.034;2023-08-24T21:18:24;101383.97;;;45.02;23.52
69316;BME280;56445;43.552;5.034;2023-08-24T21:20:58;101368.63;;;44.96;23.60
69316;BME280;56445;43.552;5.034;2023-08-24T21:23:25;101381.59;;;44.97;23.72
69316;BME280;56445;43.552;5.034;2023-08-24T21:25:52;101370.66;;;44.95;23.80
69316;BME280;56445;43.552;5.034;2023-08-24T21:28:19;101360.59;;;44.87;23.50
69316;BME280;56445;43.552;5.034;2023-08-24T21:30:46;101353.38;;;44.82;23.53
69316;BME280;56445;43.552;5.034;2023-08-24T21:33:14;101350.94;;;44.81;23.75
69316;BME280;56445;43.552;5.034;2023-08-24T21:35:41;101370.72;;;44.91;23.57
69316;BME280;56445;43.552;5.034;2023-08-24T21:38:08;101346.56;;;44.76;23.48
69316;BME280;56445;43.552;5.034;2023-08-24T21:40:39;101353.06;;;44.77;23.90
69316;BME280;56445;43.552;5.034;2023-08-24T21:43:07;101351.16;;;44.70;23.83
69316;BME280;56445;43.552;5.034;2023-08-24T21:45:34;101352.38;;;44.69;23.48
69316;BME280;56445;43.552;5.034;2023-08-24T21:48:02;101378.66;;;44.77;23.67
69316;BME280;56445;43.552;5.034;2023-08-24T21:50:29;101376.75;;;44.70;23.85
69316;BME280;56445;43.552;5.034;2023-08-24T21:52:58;101356.16;;;44.62;23.87
69316;BME280;56445;43.552;5.034;2023-08-24T21:55:25;101354.16;;;44.59;23.76
69316;BME280;56445;43.552;5.034;2023-08-24T21:57:52;101347.25;;;44.60;23.87
69316;BME280;56445;43.552;5.034;2023-08-24T22:00:22;101355.78;;;44.60;23.76
69316;BME280;56445;43.552;5.034;2023-08-24T22:02:50;101370.69;;;44.68;24.17
69316;BME280;56445;43.552;5.034;2023-08-24T22:05:17;101374.34;;;44.68;24.01
69316;BME280;56445;43.552;5.034;2023-08-24T22:07:45;101356.25;;;44.55;23.86
69316;BME280;56445;43.552;5.034;2023-08-24T22:10:12;101359.16;;;44.51;23.66
69316;BME280;56445;43.552;5.034;2023-08-24T22:12:39;101365.28;;;44.50;24.01
69316;BME280;56445;43.552;5.034;2023-08-24T22:15:07;101371.44;;;44.45;23.67
69316;BME280;56445;43.552;5.034;2023-08-24T22:17:34;101358.66;;;44.29;24.02
69316;BME280;56445;43.552;5.034;2023-08-24T22:20:01;101362.25;;;44.33;23.74
